Latest Coastal Weather Observations for Cape Naturaliste

IDW60701

Issued at 11:23 pm WST Friday 9 December 2016 (issued every 10 minutes, with the page automatically refreshed every 10 minutes)

About coastal observations | Map of coastal stations | Coastal observations for WA | Marine services | Other Formats
Station Details ID: 009519 Name: CAPE NATURALISTE Lat: -33.54 Lon: 115.02 Height: 109.0 m
Data from the previous 72 hours. | See also: Recent months at Cape Naturaliste
Date/Time
WST
Temp
°C
Wind Pressure Rain since
9am
mm
Weather Cloud Vis
km
Sea
Height
m
Swell
Dir  Spd
kts
Gust
kts
hPa Trend Height
m
Period
s
Dir
09/11:00pm 17.8 SE 19 26 1014.2 - 0.0 - - - - - - -
09/10:30pm 18.0 SE 19 25 1014.4 - 0.0 - - - - - - -
09/10:01pm 17.8 SE 19 29 1014.4 - 0.0 - - - - - - -
09/10:00pm 17.8 SE 20 29 1014.4 - 0.0 - - - - - - -
09/09:30pm 18.1 SE 20 28 1014.4 - 0.0 - - - - - - -
09/09:19pm 18.2 SE 19 29 1014.4 - 0.0 - - - - - - -
09/09:00pm 18.6 SSE 20 27 1014.3 - 0.0 - - - - - - -
09/08:30pm 18.7 SSE 18 25 1014.3 - 0.0 - - - - - - -
09/08:00pm 19.3 SSE 15 21 1014.3 - 0.0 - - - - - - -
09/07:30pm 20.5 S 14 18 1014.2 - 0.0 - - - - - - -
09/07:00pm 22.7 S 10 12 1014.1 - 0.0 - - - - - - -
09/06:30pm 24.5 S 13 19 1014.0 - 0.0 - - - - - - -
09/06:00pm 24.0 SSW 13 18 1013.8 - 0.0 - - - - - - -
09/05:30pm 22.8 SSW 14 20 1013.7 - 0.0 - - - - - - -
09/05:00pm 22.3 SSW 17 23 1013.7 - 0.0 - - - - - - -
09/04:30pm 23.3 SSW 15 20 1013.8 - 0.0 - - - - - - -
09/04:00pm 24.0 SSW 15 19 1013.9 - 0.0 - - - - - - -
09/03:30pm 24.2 SSW 17 24 1014.2 - 0.0 - - - - - - -
09/03:00pm 25.3 SSW 18 24 1014.2 - 0.0 - - - - - - -
09/02:30pm 24.2 SSW 18 24 1014.3 - 0.0 - - - - - - -
09/02:00pm 23.6 SSW 15 21 1014.4 - 0.0 - - - - - - -
09/01:30pm 23.5 SSW 17 23 1014.5 - 0.0 - - - - - - -
09/01:00pm 23.5 SSW 16 22 1014.9 - 0.0 - - - - - - -
09/12:30pm 23.1 SSW 15 21 1015.2 - 0.0 - - - - - - -
09/12:00pm 24.7 SW 12 16 1015.7 - 0.0 - - - - - - -
09/11:30am 25.7 SW 9 12 1015.8 - 0.0 - - - - - - -
09/11:00am 26.3 WSW 5 7 1015.9 - 0.0 - - - - - - -
09/10:30am 26.0 ESE 6 9 1015.8 - 0.0 - - - - - - -
09/10:00am 24.6 ESE 11 14 1015.7 - 0.0 - - - - - - -
09/09:30am 22.4 ESE 13 17 1015.5 - 0.0 - - - - - - -
09/09:00am 21.5 E 14 17 1015.7 - 0.0 - - - - - - -
09/08:30am 20.7 ESE 14 18 1015.8 - 0.0 - - - - - - -
09/08:00am 19.5 E 15 19 1015.9 - 0.0 - - - - - - -
09/07:30am 19.2 ESE 14 18 1016.1 - 0.0 - - - - - - -
09/07:00am 17.8 ESE 15 19 1016.1 - 0.0 - - - - - - -
09/06:30am 16.3 ESE 15 19 1015.9 - 0.0 - - - - - - -
09/06:00am 15.3 ESE 15 19 1015.7 - 0.0 - - - - - - -
09/05:30am 14.2 ESE 15 18 1015.5 - 0.0 - - - - - - -
09/05:00am 13.8 ESE 16 18 1015.4 - 0.0 - - - - - - -
09/04:30am 13.7 ESE 16 19 1015.2 - 0.0 - - - - - - -
09/04:00am 13.8 ESE 15 17 1015.2 - 0.0 - - - - - - -
09/03:30am 14.2 ESE 16 18 1015.1 - 0.0 - - - - - - -
09/03:00am 14.4 ESE 16 18 1015.1 - 0.0 - - - - - - -
09/02:30am 14.7 ESE 16 19 1015.2 - 0.0 - - - - - - -
09/02:00am 15.6 ESE 17 21 1015.2 - 0.0 - - - - - - -
09/01:30am 15.2 ESE 15 19 1015.4 - 0.0 - - - - - - -
09/01:00am 15.7 SE 17 21 1015.6 - 0.0 - - - - - - -
09/12:30am 15.6 SE 16 21 1015.9 - 0.0 - - - - - - -
09/12:00am 16.1 SE 17 22 1016.0 - 0.0 - - - - - - -
 
Date/Time
WST
Temp
°C
Wind Pressure Rain since
9am
mm
Weather Cloud Vis
km
Sea
Height
m
Swell
Dir  Spd
kts
Gust
kts
hPa Trend Height
m
Period
s
Dir
08/11:30pm 15.5 SE 16 22 1016.1 - 0.0 - - - - - - -
08/11:00pm 15.9 SE 15 22 1016.2 - 0.0 - - - - - - -
08/10:30pm 16.1 SE 15 22 1016.5 - 0.0 - - - - - - -
08/10:00pm 16.9 SE 15 21 1016.6 - 0.0 - - - - - - -
08/09:30pm 17.3 SSE 14 19 1016.5 - 0.0 - - - - - - -
08/09:00pm 17.1 S 10 16 1016.7 - 0.0 - - - - - - -
08/08:30pm 17.5 S 11 15 1016.9 - 0.0 - - - - - - -
08/08:00pm 17.7 S 12 16 1016.9 - 0.0 - - - - - - -
08/07:30pm 18.5 S 11 15 1016.7 - 0.0 - - - - - - -
08/07:00pm 20.0 S 11 14 1016.7 - 0.0 - - - - - - -
08/06:30pm 21.9 SSW 14 18 1016.6 - 0.0 - - - - - - -
08/06:00pm 22.9 SSW 12 16 1016.4 - 0.0 - - - - - - -
08/05:30pm 22.1 SSW 12 16 1016.4 - 0.0 - - - - - - -
08/05:00pm 21.5 SSW 15 22 1016.5 - 0.0 - - - - - - -
08/04:30pm 21.3 SSW 14 19 1017.0 - 0.0 - - - - - - -
08/04:00pm 21.3 SSW 13 18 1017.1 - 0.0 - - - - - - -
08/03:30pm 21.7 SW 14 19 1017.5 - 0.0 - - - - - - -
08/03:00pm 21.4 SW 15 19 1017.9 - 0.0 - - - - - - -
08/02:30pm 21.0 SW 14 19 1018.2 - 0.0 - - - - - - -
08/02:00pm 21.3 SW 15 19 1018.3 - 0.0 - - - - - - -
08/01:30pm 21.1 SW 13 18 1018.8 - 0.0 - - - - - - -
08/01:00pm 21.7 SW 13 18 1019.0 - 0.0 - - - - - - -
08/12:30pm 22.6 SSW 10 17 1019.2 - 0.0 - - - - - - -
08/12:00pm 20.7 ENE 9 12 1019.7 - 0.0 - - - - - - -
08/11:30am 20.6 E 10 13 1020.1 - 0.0 - - - - - - -
08/11:00am 19.7 E 10 14 1020.4 - 0.0 - - - - - - -
08/10:30am 19.2 E 11 15 1020.7 - 0.0 - - - - - - -
08/10:00am 19.3 ENE 13 17 1021.1 - 0.0 - - - - - - -
08/09:30am 17.5 E 12 17 1021.3 - 0.0 - - - - - - -
08/09:00am 16.6 E 13 17 1021.4 - 0.0 - - - - - - -
08/08:30am 15.7 E 14 18 1021.6 - 0.0 - - - - - - -
08/08:00am 15.6 E 14 20 1021.6 - 0.0 - - - - - - -
08/07:30am 14.4 ESE 15 20 1021.5 - 0.0 - - - - - - -
08/07:00am 13.7 ESE 14 19 1021.5 - 0.0 - - - - - - -
08/06:30am 12.5 ESE 14 20 1021.3 - 0.0 - - - - - - -
08/06:00am 11.1 ESE 13 17 1021.1 - 0.0 - - - - - - -
08/05:30am 9.9 ESE 15 19 1020.6 - 0.0 - - - - - - -
08/05:00am 9.8 ESE 16 20 1020.2 - 0.0 - - - - - - -
08/04:30am 10.1 ESE 17 23 1019.9 - 0.0 - - - - - - -
08/04:00am 10.3 ESE 17 23 1019.7 - 0.0 - - - - - - -
08/03:30am 10.4 ESE 17 21 1019.7 - 0.0 - - - - - - -
08/03:00am 10.7 ESE 15 19 1019.7 - 0.0 - - - - - - -
08/02:30am 11.1 ESE 16 22 1019.6 - 0.0 - - - - - - -
08/02:00am 11.4 SE 17 22 1019.4 - 0.0 - - - - - - -
08/01:30am 11.6 SE 17 23 1019.6 - 0.0 - - - - - - -
08/01:00am 11.9 ESE 18 24 1019.7 - 0.0 - - - - - - -
08/12:30am 12.0 SE 19 25 1019.6 - 0.0 - - - - - - -
08/12:00am 12.2 SE 19 27 1019.8 - 0.0 - - - - - - -
 
Date/Time
WST
Temp
°C
Wind Pressure Rain since
9am
mm
Weather Cloud Vis
km
Sea
Height
m
Swell
Dir  Spd
kts
Gust
kts
hPa Trend Height
m
Period
s
Dir
07/11:33pm 12.4 SE 19 29 1019.9 - 0.0 - - - - - - -
07/11:30pm 12.3 SE 19 26 1019.9 - 0.0 - - - - - - -
07/11:00pm 12.7 SE 19 26 1020.0 - 0.0 - - - - - - -
07/10:50pm 12.9 SE 19 29 1020.1 - 0.0 - - - - - - -
07/10:30pm 13.0 SE 19 27 1020.2 - 0.0 - - - - - - -
07/10:00pm 13.2 SSE 18 25 1020.3 - 0.0 - - - - - - -
07/09:30pm 13.2 SSE 17 23 1020.3 - 0.0 - - - - - - -
07/09:04pm 13.6 SSE 20 30 1019.9 - 0.0 - - - - - - -
07/09:00pm 13.6 SSE 20 26 1019.8 - 0.0 - - - - - - -
07/08:44pm 13.7 SSE 20 30 1019.8 - 0.0 - - - - - - -
07/08:30pm 13.7 SSE 17 24 1019.9 - 0.0 - - - - - - -
07/08:00pm 14.1 SSE 17 22 1019.8 - 0.0 - - - - - - -
07/07:30pm 14.4 SSE 14 19 1019.6 - 0.0 - - - - - - -
07/07:00pm 15.5 S 17 25 1019.2 - 0.0 - - - - - - -
07/06:30pm 16.8 S 17 25 1018.8 - 0.0 - - - - - - -
07/06:00pm 18.0 S 16 23 1018.5 - 0.0 - - - - - - -
07/05:30pm 19.1 S 15 26 1018.3 - 0.0 - - - - - - -
07/05:28pm 18.7 S 17 27 1018.3 - 0.0 - - - - - - -
07/05:00pm 18.4 SSW 23 31 1017.6 - 0.0 - - - - - - -
07/04:31pm 19.1 SSW 23 33 1017.3 - 0.0 - - - - - - -
07/04:30pm 19.0 SSW 23 30 1017.3 - 0.0 - - - - - - -
07/04:16pm 18.8 SSW 24 34 1017.2 - 0.0 - - - - - - -
07/04:00pm 18.9 SSW 24 32 1017.2 - 0.0 - - - - - - -
07/03:30pm 19.3 SSW 23 32 1017.3 - 0.0 - - - - - - -
07/03:00pm 19.8 SSW 22 31 1017.3 - 0.0 - - - - - - -
07/02:30pm 19.8 SSW 24 32 1017.3 - 0.0 - - - - - - -
07/02:11pm 20.1 SSW 21 31 1017.4 - 0.0 - - - - - - -
07/02:00pm 19.9 SSW 23 29 1017.4 - 0.0 - - - - - - -
07/01:30pm 20.5 SSW 22 32 1017.4 - 0.0 - - - - - - -
07/01:17pm 20.8 SSW 22 32 1017.3 - 0.0 - - - - - - -
07/01:00pm 20.3 SSW 22 29 1017.3 - 0.0 - - - - - - -
07/12:30pm 20.3 SSW 23 32 1017.4 - 0.0 - - - - - - -
07/12:01pm 20.6 SSW 21 31 1017.3 - 0.0 - - - - - - -
07/12:00pm 20.3 SSW 22 31 1017.3 - 0.0 - - - - - - -
07/11:39am 19.7 SSW 20 30 1017.3 - 0.0 - - - - - - -
07/11:30am 20.7 SSW 19 26 1017.3 - 0.0 - - - - - - -
07/11:00am 20.1 SSW 20 27 1017.2 - 0.0 - - - - - - -
07/10:37am 19.9 SSW 21 31 1017.1 - 0.0 - - - - - - -
07/10:30am 19.8 SSW 21 30 1017.2 - 0.0 - - - - - - -
07/10:24am 19.8 SSW 20 30 1017.2 - 0.0 - - - - - - -
07/10:00am 19.5 SSW 21 29 1017.0 - 0.0 - - - - - - -
07/09:49am 19.2 SSW 20 30 1017.0 - 0.0 - - - - - - -
07/09:30am 19.4 SSW 20 27 1016.9 - 0.0 - - - - - - -
07/09:08am 19.2 SSW 19 29 1016.7 - 0.0 - - - - - - -
07/09:00am 18.7 SSW 21 29 1016.5 - 0.2 - - - - - - -
07/08:38am 18.8 SSW 20 30 1016.4 - 0.2 - - - - - - -
07/08:30am 17.4 SSW 21 28 1016.3 - 0.2 - - - - - - -
07/08:00am 17.8 SSW 18 25 1016.1 - 0.2 - - - - - - -
07/07:30am 17.2 SSW 20 26 1015.8 - 0.2 - - - - - - -
07/07:17am 17.4 SSW 17 27 1015.6 - 0.2 - - - - - - -
07/07:00am 17.2 SSW 22 31 1015.3 - 0.2 - - - - - - -
07/06:48am 16.9 SSW 20 30 1015.3 - 0.2 - - - - - - -
07/06:30am 16.9 SSW 18 25 1015.1 - 0.2 - - - - - - -
07/06:00am 16.4 SW 18 26 1014.5 - 0.2 - - - - - - -
07/05:30am 16.5 SSW 22 29 1013.8 - 0.2 - - - - - - -
07/05:00am 16.3 SW 19 24 1013.6 - 0.2 - - - - - - -
07/04:30am 16.1 SW 18 25 1013.0 - 0.2 - - - - - - -
07/04:00am 15.8 SW 18 29 1012.9 - 0.0 - - - - - - -
07/03:47am 16.5 SW 20 30 1012.8 - 0.0 - - - - - - -
07/03:30am 17.7 WSW 19 26 1012.6 - 0.0 - - - - - - -
07/03:00am 17.3 WSW 20 26 1012.5 - 0.0 - - - - - - -
07/02:30am 17.4 WSW 17 23 1012.5 - 0.0 - - - - - - -
07/02:00am 17.3 SW 22 27 1012.6 - 0.0 - - - - - - -
07/01:30am 17.0 SW 18 22 1012.5 - 0.0 - - - - - - -
07/01:00am 15.7 WSW 16 22 1012.8 - 0.0 - - - - - - -
07/12:30am 16.9 WSW 16 22 1013.0 - 0.0 - - - - - - -
07/12:00am 17.1 WSW 14 19 1013.3 - 0.0 - - - - - - -
 
Date/Time
WST
Temp
°C
Wind Pressure Rain since
9am
mm
Weather Cloud Vis
km
Sea
Height
m
Swell
Dir  Spd
kts
Gust
kts
hPa Trend Height
m
Period
s
Dir
06/11:30pm 17.3 WSW 17 23 1013.4 - 0.0 - - - - - - -

Other Formats:

Comma delimited format used in spreadsheet applications
http://www.bom.gov.au/fwo/IDW60701/IDW60701.94600.axf

JavaScript Object Notation format (JSON) in row-major order
http://www.bom.gov.au/fwo/IDW60701/IDW60701.94600.json